Time;durP1;ratioP1;P1;durP2;ratioP2;P2;SDS_P1;SDS_P2;PMS_P1;PMS_P2;Temp;Humidity;BMP_temperature;BMP_pressure;BME280_temperature;BME280_humidity;BME280_pressure;Samples;Min_cycle;Max_cycle;Signal;HPM_P1;HPM_P2
2021/07/02 00:01:57;;;;;;;15.70;9.95;;;;;;;;;;5025335;28;20364;-72
2021/07/02 00:04:23;;;;;;;19.63;11.07;;;;;;;;;;5023104;28;20202;-72
2021/07/02 00:06:48;;;;;;;16.05;10.63;;;;;;;;;;5027201;28;20513;-72
2021/07/02 00:09:14;;;;;;;16.13;10.00;;;;;;;;;;5028544;28;20230;-72
2021/07/02 00:11:39;;;;;;;16.87;9.47;;;;;;;;;;5033208;28;20288;-72
2021/07/02 00:14:04;;;;;;;18.85;10.85;;;;;;;;;;5027235;28;20442;-72
2021/07/02 00:16:30;;;;;;;16.30;10.05;;;;;;;;;;5028335;28;20178;-72
2021/07/02 00:18:55;;;;;;;19.65;11.88;;;;;;;;;;5020588;28;20210;-73
2021/07/02 00:21:20;;;;;;;21.67;10.37;;;;;;;;;;5026260;28;20178;-72
2021/07/02 00:23:45;;;;;;;17.67;11.23;;;;;;;;;;5028128;28;20447;-71
2021/07/02 00:26:10;;;;;;;15.35;10.05;;;;;;;;;;5031433;28;20190;-73
2021/07/02 00:28:37;;;;;;;18.50;10.97;;;;;;;;;;5031324;28;20705;-72
2021/07/02 00:31:02;;;;;;;19.48;10.73;;;;;;;;;;5017334;28;20531;-71
2021/07/02 00:33:27;;;;;;;13.55;10.20;;;;;;;;;;5015277;28;20595;-72
2021/07/02 00:35:53;;;;;;;14.93;11.65;;;;;;;;;;5026707;28;20186;-72
2021/07/02 00:38:18;;;;;;;18.88;11.43;;;;;;;;;;5028269;28;20612;-71
2021/07/02 00:40:43;;;;;;;17.73;11.48;;;;;;;;;;5027369;28;20707;-72
2021/07/02 00:43:08;;;;;;;18.17;11.57;;;;;;;;;;5031061;28;20646;-72
2021/07/02 00:45:33;;;;;;;17.77;11.75;;;;;;;;;;5028724;28;20463;-72
2021/07/02 00:47:59;;;;;;;18.10;12.57;;;;;;;;;;5031901;28;20257;-72
2021/07/02 00:50:25;;;;;;;19.88;12.10;;;;;;;;;;5013814;28;20210;-72
2021/07/02 00:52:50;;;;;;;28.65;12.60;;;;;;;;;;5020753;28;20224;-72
2021/07/02 00:55:15;;;;;;;18.92;11.88;;;;;;;;;;5020454;28;20783;-71
2021/07/02 00:57:43;;;;;;;25.45;11.85;;;;;;;;;;5020991;28;20617;-72
2021/07/02 01:00:08;;;;;;;16.75;11.43;;;;;;;;;;5027014;28;20662;-71
2021/07/02 01:02:34;;;;;;;19.38;11.48;;;;;;;;;;5025398;28;20217;-71
2021/07/02 01:04:59;;;;;;;13.85;10.10;;;;;;;;;;5024504;28;20207;-72
2021/07/02 01:07:25;;;;;;;14.90;11.15;;;;;;;;;;5022492;28;20559;-72
2021/07/02 01:09:50;;;;;;;13.18;10.48;;;;;;;;;;5023378;28;20672;-72
2021/07/02 01:12:16;;;;;;;15.98;10.10;;;;;;;;;;5019263;28;20743;-72
2021/07/02 01:14:41;;;;;;;20.85;11.00;;;;;;;;;;5025543;28;20211;-72
2021/07/02 01:17:06;;;;;;;19.52;10.00;;;;;;;;;;5027483;28;20562;-72
2021/07/02 01:19:31;;;;;;;18.10;12.00;;;;;;;;;;5029028;28;20185;-71
2021/07/02 01:21:57;;;;;;;17.48;10.57;;;;;;;;;;5024010;28;20179;-71
2021/07/02 01:24:22;;;;;;;19.88;12.45;;;;;;;;;;5025427;28;20676;-72
2021/07/02 01:26:49;;;;;;;22.48;11.10;;;;;;;;;;5032072;28;20217;-72
2021/07/02 01:29:14;;;;;;;16.23;11.40;;;;;;;;;;5022982;28;20672;-72
2021/07/02 01:31:39;;;;;;;17.27;10.95;;;;;;;;;;5029984;28;20180;-72
2021/07/02 01:34:04;;;;;;;19.20;12.05;;;;;;;;;;5024903;28;20202;-72
2021/07/02 01:36:30;;;;;;;18.27;12.25;;;;;;;;;;5026707;28;20183;-72
2021/07/02 01:38:55;;;;;;;19.63;11.43;;;;;;;;;;5025704;28;20233;-72
2021/07/02 01:41:20;;;;;;;21.38;11.70;;;;;;;;;;5025439;28;20185;-72
2021/07/02 01:43:46;;;;;;;19.15;11.93;;;;;;;;;;5020687;28;20203;-72
2021/07/02 01:46:11;;;;;;;17.75;12.63;;;;;;;;;;5028880;28;20287;-72
2021/07/02 01:48:36;;;;;;;18.63;12.73;;;;;;;;;;5028755;28;20397;-73
2021/07/02 01:51:01;;;;;;;20.60;12.48;;;;;;;;;;5022612;28;20674;-72
2021/07/02 01:53:27;;;;;;;19.98;12.25;;;;;;;;;;5024698;28;20185;-72
2021/07/02 01:55:52;;;;;;;18.80;11.80;;;;;;;;;;5028347;28;20193;-72
2021/07/02 01:58:18;;;;;;;25.17;13.45;;;;;;;;;;5020163;28;20181;-72
2021/07/02 02:00:43;;;;;;;18.00;12.57;;;;;;;;;;5023968;28;20175;-72
2021/07/02 02:03:08;;;;;;;17.98;12.00;;;;;;;;;;5022201;28;20241;-72
2021/07/02 02:05:33;;;;;;;16.88;10.65;;;;;;;;;;5024903;28;20592;-72
2021/07/02 02:07:59;;;;;;;20.85;12.68;;;;;;;;;;5025790;28;20649;-72
2021/07/02 02:10:24;;;;;;;18.20;11.45;;;;;;;;;;5025525;28;20198;-72
2021/07/02 02:12:49;;;;;;;20.92;12.57;;;;;;;;;;5026760;28;20199;-72
2021/07/02 02:15:14;;;;;;;17.65;11.85;;;;;;;;;;5021163;28;20194;-72
2021/07/02 02:17:40;;;;;;;20.90;11.98;;;;;;;;;;5030961;28;20253;-71
2021/07/02 02:20:06;;;;;;;22.27;12.75;;;;;;;;;;5038529;28;20205;-72
2021/07/02 02:22:32;;;;;;;20.58;13.18;;;;;;;;;;5057849;28;20169;-70
2021/07/02 02:24:57;;;;;;;22.35;12.93;;;;;;;;;;5056202;28;20202;-71
2021/07/02 02:27:22;;;;;;;20.15;12.75;;;;;;;;;;5050102;28;20182;-72
2021/07/02 02:29:47;;;;;;;20.08;13.57;;;;;;;;;;5056123;28;20248;-71
2021/07/02 02:32:12;;;;;;;25.90;13.48;;;;;;;;;;5057348;28;20163;-72
2021/07/02 02:34:38;;;;;;;16.80;12.30;;;;;;;;;;5054836;28;20279;-72
2021/07/02 02:37:03;;;;;;;23.85;13.30;;;;;;;;;;5054188;28;20151;-72
2021/07/02 02:39:28;;;;;;;20.67;13.50;;;;;;;;;;5049720;28;20186;-72
2021/07/02 02:41:54;;;;;;;22.77;13.48;;;;;;;;;;5053393;28;21462;-72
2021/07/02 02:44:19;;;;;;;19.20;12.68;;;;;;;;;;5044791;28;20225;-72
2021/07/02 02:46:44;;;;;;;19.27;12.88;;;;;;;;;;5030215;28;20182;-72
2021/07/02 02:49:09;;;;;;;19.20;13.20;;;;;;;;;;5028210;28;20225;-72
2021/07/02 02:51:34;;;;;;;20.50;13.57;;;;;;;;;;5025448;28;20266;-72
2021/07/02 02:54:00;;;;;;;18.60;12.82;;;;;;;;;;5021759;28;20277;-72
2021/07/02 02:56:25;;;;;;;19.05;12.25;;;;;;;;;;5020961;28;20185;-71
2021/07/02 02:58:50;;;;;;;18.15;11.90;;;;;;;;;;5018903;28;20197;-72
2021/07/02 03:01:15;;;;;;;22.20;12.93;;;;;;;;;;5011511;28;20227;-72
2021/07/02 03:03:41;;;;;;;17.30;12.82;;;;;;;;;;5023029;28;20565;-72
2021/07/02 03:06:06;;;;;;;20.67;13.63;;;;;;;;;;5021999;28;20180;-72
2021/07/02 03:08:31;;;;;;;19.17;12.27;;;;;;;;;;5015618;28;20638;-72
2021/07/02 03:10:56;;;;;;;18.25;12.02;;;;;;;;;;5026782;28;20244;-72
2021/07/02 03:13:21;;;;;;;18.63;12.32;;;;;;;;;;5026655;28;20292;-72
2021/07/02 03:15:47;;;;;;;19.40;12.38;;;;;;;;;;5020953;28;20183;-72
2021/07/02 03:18:12;;;;;;;20.10;12.43;;;;;;;;;;5026219;28;20178;-72
2021/07/02 03:20:37;;;;;;;20.58;12.93;;;;;;;;;;5024091;28;20760;-72
2021/07/02 03:23:02;;;;;;;24.20;13.73;;;;;;;;;;5024610;28;20182;-72
2021/07/02 03:25:28;;;;;;;19.75;12.80;;;;;;;;;;5028698;28;20205;-72
2021/07/02 03:27:53;;;;;;;17.80;13.10;;;;;;;;;;5029131;28;20179;-72
2021/07/02 03:30:18;;;;;;;21.92;11.57;;;;;;;;;;5025699;28;20580;-71
2021/07/02 03:32:43;;;;;;;21.45;13.23;;;;;;;;;;5029916;28;20181;-72
2021/07/02 03:35:10;;;;;;;17.10;11.68;;;;;;;;;;5028721;28;20688;-72
2021/07/02 03:37:36;;;;;;;21.02;11.95;;;;;;;;;;5021313;28;20186;-72
2021/07/02 03:40:02;;;;;;;16.50;12.23;;;;;;;;;;5020672;28;20183;-72
2021/07/02 03:42:28;;;;;;;23.67;11.63;;;;;;;;;;5024969;28;20198;-72
2021/07/02 03:44:53;;;;;;;21.65;12.38;;;;;;;;;;5029988;28;20694;-72
2021/07/02 03:47:18;;;;;;;16.92;11.75;;;;;;;;;;5026027;28;20216;-72
2021/07/02 03:49:43;;;;;;;20.13;11.98;;;;;;;;;;5021462;28;20589;-72
2021/07/02 03:52:08;;;;;;;18.00;12.18;;;;;;;;;;5021537;28;20243;-72
2021/07/02 03:54:34;;;;;;;18.90;12.40;;;;;;;;;;5024643;28;20198;-72
2021/07/02 03:57:11;;;;;;;16.02;10.05;;;;;;;;;;5019148;28;20190;-72
2021/07/02 03:59:37;;;;;;;18.88;11.02;;;;;;;;;;5014928;28;20185;-72
2021/07/02 04:02:02;;;;;;;15.88;10.77;;;;;;;;;;5026614;28;20186;-72
2021/07/02 04:04:27;;;;;;;17.75;11.68;;;;;;;;;;5021035;28;20198;-72
2021/07/02 04:06:52;;;;;;;15.20;11.27;;;;;;;;;;5016614;28;20745;-72
2021/07/02 04:09:17;;;;;;;17.92;11.68;;;;;;;;;;5024126;28;20447;-72
2021/07/02 04:11:43;;;;;;;22.80;11.00;;;;;;;;;;5019953;28;20197;-72
2021/07/02 04:14:08;;;;;;;20.08;11.93;;;;;;;;;;5021920;28;20202;-72
2021/07/02 04:16:33;;;;;;;18.83;11.63;;;;;;;;;;5027526;28;20609;-72
2021/07/02 04:18:58;;;;;;;18.88;11.63;;;;;;;;;;5026791;28;20438;-71
2021/07/02 04:21:23;;;;;;;17.92;11.82;;;;;;;;;;5029630;28;20182;-72
2021/07/02 04:23:49;;;;;;;16.45;11.23;;;;;;;;;;5023040;28;20211;-72
2021/07/02 04:26:14;;;;;;;21.10;12.23;;;;;;;;;;5029905;28;20668;-71
2021/07/02 04:28:39;;;;;;;19.67;11.68;;;;;;;;;;5026534;28;20265;-72
2021/07/02 04:31:05;;;;;;;16.50;11.45;;;;;;;;;;5024061;28;20280;-72
2021/07/02 04:33:30;;;;;;;16.23;11.07;;;;;;;;;;5026904;28;20182;-72
2021/07/02 04:35:55;;;;;;;18.58;11.45;;;;;;;;;;5027224;28;20245;-72
2021/07/02 04:38:20;;;;;;;16.48;11.52;;;;;;;;;;5023388;28;20220;-72
2021/07/02 04:40:48;;;;;;;15.13;11.23;;;;;;;;;;5028462;28;20541;-72
2021/07/02 04:43:13;;;;;;;13.85;10.82;;;;;;;;;;5026840;28;20175;-73
2021/07/02 04:45:38;;;;;;;16.77;9.73;;;;;;;;;;5025867;28;20229;-73
2021/07/02 04:48:03;;;;;;;18.52;10.93;;;;;;;;;;5021947;28;20182;-72
2021/07/02 04:50:29;;;;;;;17.95;11.45;;;;;;;;;;5025607;28;20750;-72
2021/07/02 04:52:54;;;;;;;18.45;11.52;;;;;;;;;;5019438;28;20171;-72
2021/07/02 04:55:19;;;;;;;13.82;9.73;;;;;;;;;;5025221;28;20198;-72
2021/07/02 04:57:44;;;;;;;13.80;10.27;;;;;;;;;;5024425;28;20214;-72
2021/07/02 05:00:11;;;;;;;13.35;10.05;;;;;;;;;;5017642;28;20183;-72
2021/07/02 05:02:36;;;;;;;16.60;12.00;;;;;;;;;;5024516;28;20272;-72
2021/07/02 05:05:01;;;;;;;18.85;10.85;;;;;;;;;;5028825;28;20239;-72
2021/07/02 05:07:28;;;;;;;18.35;10.55;;;;;;;;;;5030858;28;20264;-71
2021/07/02 05:09:53;;;;;;;17.08;10.95;;;;;;;;;;5029118;28;20736;-71
2021/07/02 05:12:18;;;;;;;14.27;10.68;;;;;;;;;;5026135;28;20333;-71
2021/07/02 05:14:44;;;;;;;16.55;11.77;;;;;;;;;;5029551;28;20214;-72
2021/07/02 05:17:09;;;;;;;15.48;11.32;;;;;;;;;;5032511;28;20209;-72
2021/07/02 05:19:34;;;;;;;17.58;12.20;;;;;;;;;;5023041;28;20189;-72
2021/07/02 05:21:59;;;;;;;19.00;11.90;;;;;;;;;;5029370;28;20177;-72
2021/07/02 05:24:24;;;;;;;23.98;13.45;;;;;;;;;;5023401;28;20575;-72
2021/07/02 05:26:50;;;;;;;21.52;13.45;;;;;;;;;;5031464;28;20186;-72
2021/07/02 05:29:15;;;;;;;20.67;13.07;;;;;;;;;;5030131;28;20668;-72
2021/07/02 05:31:40;;;;;;;21.55;14.35;;;;;;;;;;5027110;28;20182;-72
2021/07/02 05:34:05;;;;;;;19.52;13.15;;;;;;;;;;5025835;28;20610;-72
2021/07/02 05:36:30;;;;;;;18.60;12.52;;;;;;;;;;5024677;28;20596;-71
2021/07/02 05:38:56;;;;;;;23.30;13.18;;;;;;;;;;5028575;28;20861;-71
2021/07/02 05:41:21;;;;;;;26.80;14.48;;;;;;;;;;5026175;28;20178;-71
2021/07/02 05:43:48;;;;;;;25.43;14.30;;;;;;;;;;5028703;28;20210;-71
2021/07/02 05:46:13;;;;;;;22.30;13.88;;;;;;;;;;5031209;28;20486;-72
2021/07/02 05:48:39;;;;;;;21.73;15.37;;;;;;;;;;5029412;28;20179;-71
2021/07/02 05:51:04;;;;;;;24.33;15.30;;;;;;;;;;5027894;28;20420;-71
2021/07/02 05:53:29;;;;;;;21.73;14.68;;;;;;;;;;5023984;28;20179;-71
2021/07/02 05:55:54;;;;;;;23.70;15.55;;;;;;;;;;5022196;28;20782;-71
2021/07/02 05:58:19;;;;;;;21.60;14.48;;;;;;;;;;5029196;28;20174;-72
2021/07/02 06:00:45;;;;;;;22.93;14.50;;;;;;;;;;5024356;28;20185;-71
2021/07/02 06:03:10;;;;;;;23.27;14.53;;;;;;;;;;5028067;28;21006;-71
2021/07/02 06:05:35;;;;;;;21.97;14.80;;;;;;;;;;5017266;28;20465;-71
2021/07/02 06:08:02;;;;;;;28.90;16.17;;;;;;;;;;5021381;28;21021;-71
2021/07/02 06:10:27;;;;;;;25.05;15.68;;;;;;;;;;5023998;28;20206;-71
2021/07/02 06:12:52;;;;;;;19.30;13.70;;;;;;;;;;5018790;28;20529;-71
2021/07/02 06:15:19;;;;;;;20.98;14.23;;;;;;;;;;5027296;28;20190;-71
2021/07/02 06:17:45;;;;;;;21.77;15.18;;;;;;;;;;5024576;28;20174;-72
2021/07/02 06:20:11;;;;;;;20.20;13.80;;;;;;;;;;5025861;28;20178;-71
2021/07/02 06:22:37;;;;;;;21.88;14.27;;;;;;;;;;5029404;28;20181;-71
2021/07/02 06:25:03;;;;;;;18.20;13.45;;;;;;;;;;5029407;28;20252;-71
2021/07/02 06:27:28;;;;;;;22.45;14.60;;;;;;;;;;5021287;28;20183;-72
2021/07/02 06:29:54;;;;;;;19.48;14.02;;;;;;;;;;5026666;28;20221;-71
2021/07/02 06:32:19;;;;;;;21.55;15.25;;;;;;;;;;5026104;28;22420;-71
2021/07/02 06:34:44;;;;;;;19.52;14.60;;;;;;;;;;5027968;28;20652;-71
2021/07/02 06:37:09;;;;;;;18.95;13.88;;;;;;;;;;5030568;28;20710;-72
2021/07/02 06:39:34;;;;;;;21.25;15.40;;;;;;;;;;5026110;28;20174;-71
2021/07/02 06:42:00;;;;;;;20.43;14.83;;;;;;;;;;5026558;28;20212;-72
2021/07/02 06:44:25;;;;;;;20.23;14.77;;;;;;;;;;5027809;28;20555;-72
2021/07/02 06:46:50;;;;;;;18.47;14.23;;;;;;;;;;5027413;28;20450;-71
2021/07/02 06:49:15;;;;;;;17.35;13.82;;;;;;;;;;5025096;28;20447;-71
2021/07/02 06:51:40;;;;;;;21.52;13.40;;;;;;;;;;5026188;28;20596;-71
2021/07/02 06:54:05;;;;;;;20.55;13.38;;;;;;;;;;5022788;28;20247;-71
2021/07/02 06:56:31;;;;;;;19.90;13.43;;;;;;;;;;5026137;28;20174;-71
2021/07/02 06:58:57;;;;;;;21.38;13.35;;;;;;;;;;5028695;28;20193;-71
2021/07/02 07:01:23;;;;;;;20.88;13.43;;;;;;;;;;5047897;28;20178;-71
2021/07/02 07:03:48;;;;;;;21.40;14.95;;;;;;;;;;5053863;28;20194;-72
2021/07/02 07:06:14;;;;;;;18.60;14.40;;;;;;;;;;5053732;28;20166;-71
2021/07/02 07:08:39;;;;;;;18.92;13.93;;;;;;;;;;5047702;28;20432;-72
2021/07/02 07:11:05;;;;;;;17.98;14.05;;;;;;;;;;5051195;28;20179;-72
2021/07/02 07:13:30;;;;;;;20.30;14.38;;;;;;;;;;5053686;28;20174;-72
2021/07/02 07:15:55;;;;;;;19.25;14.50;;;;;;;;;;5053054;28;20178;-71
2021/07/02 07:18:20;;;;;;;20.03;15.13;;;;;;;;;;5054823;28;20217;-72
2021/07/02 07:20:46;;;;;;;20.77;15.52;;;;;;;;;;5050902;28;20449;-71
2021/07/02 07:23:11;;;;;;;19.63;14.90;;;;;;;;;;5044081;28;20231;-72
2021/07/02 07:25:36;;;;;;;20.48;14.32;;;;;;;;;;5037452;28;20244;-72
2021/07/02 07:28:01;;;;;;;21.42;15.07;;;;;;;;;;5027487;28;20587;-72
2021/07/02 07:30:27;;;;;;;18.95;14.70;;;;;;;;;;5022108;28;20289;-72
2021/07/02 07:32:53;;;;;;;22.70;16.33;;;;;;;;;;5023304;28;20174;-72
2021/07/02 07:37:45;;;;;;;20.45;15.05;;;;;;;;;;5032325;28;20190;-72
2021/07/02 07:40:10;;;;;;;19.33;13.98;;;;;;;;;;5029112;28;20183;-72
2021/07/02 07:42:36;;;;;;;18.55;14.02;;;;;;;;;;5024191;28;20201;-72
2021/07/02 07:45:01;;;;;;;17.25;13.55;;;;;;;;;;5023761;28;20203;-73
2021/07/02 07:47:26;;;;;;;19.40;13.32;;;;;;;;;;5023402;28;20205;-73
2021/07/02 07:49:51;;;;;;;18.67;13.88;;;;;;;;;;5024562;28;20467;-72
2021/07/02 07:52:24;;;;;;;17.58;13.10;;;;;;;;;;5030841;28;20177;-72
2021/07/02 07:54:49;;;;;;;17.48;14.18;;;;;;;;;;5020712;28;20607;-72
2021/07/02 07:57:15;;;;;;;19.07;14.83;;;;;;;;;;5029566;28;20269;-72
2021/07/02 07:59:40;;;;;;;17.95;14.93;;;;;;;;;;5022781;28;20424;-72
2021/07/02 08:02:06;;;;;;;19.27;15.13;;;;;;;;;;5029686;28;20178;-72
2021/07/02 08:04:32;;;;;;;18.65;13.95;;;;;;;;;;5023160;28;20207;-72
2021/07/02 08:06:57;;;;;;;20.55;14.90;;;;;;;;;;5025751;28;20190;-73
2021/07/02 08:09:22;;;;;;;24.33;15.43;;;;;;;;;;5021286;28;20210;-72
2021/07/02 08:11:47;;;;;;;19.90;15.13;;;;;;;;;;5030519;28;20186;-72
2021/07/02 08:14:13;;;;;;;20.58;15.23;;;;;;;;;;5024096;28;20226;-72
2021/07/02 08:16:39;;;;;;;21.95;15.93;;;;;;;;;;5028960;28;20224;-72
2021/07/02 08:19:04;;;;;;;23.67;15.98;;;;;;;;;;5028542;28;20175;-72
2021/07/02 08:21:30;;;;;;;26.05;16.80;;;;;;;;;;5023883;28;20557;-72
2021/07/02 08:23:55;;;;;;;25.35;17.98;;;;;;;;;;5028206;28;20210;-72
2021/07/02 08:26:20;;;;;;;24.50;18.70;;;;;;;;;;5007924;28;20206;-73
2021/07/02 08:31:30;;;;;;;26.85;17.75;;;;;;;;;;5015168;28;20188;-72
2021/07/02 08:33:55;;;;;;;22.13;15.63;;;;;;;;;;5016813;28;20194;-73
2021/07/02 08:36:21;;;;;;;25.55;18.00;;;;;;;;;;5020103;28;20206;-72
2021/07/02 08:38:46;;;;;;;25.48;17.90;;;;;;;;;;5020039;28;20175;-72
2021/07/02 08:41:13;;;;;;;22.42;15.98;;;;;;;;;;5014742;28;20178;-73
2021/07/02 08:43:39;;;;;;;28.00;18.02;;;;;;;;;;5014768;28;20965;-73
2021/07/02 08:46:05;;;;;;;23.20;17.67;;;;;;;;;;5013361;28;20170;-72
2021/07/02 08:48:30;;;;;;;21.40;16.77;;;;;;;;;;5018701;28;20640;-72
2021/07/02 08:50:55;;;;;;;23.27;17.85;;;;;;;;;;5013466;28;20684;-72
2021/07/02 08:53:21;;;;;;;24.48;18.50;;;;;;;;;;5016741;28;20178;-72
2021/07/02 08:55:46;;;;;;;24.38;17.67;;;;;;;;;;5014858;28;20310;-72
2021/07/02 08:58:13;;;;;;;29.85;20.08;;;;;;;;;;5015960;28;20640;-72
2021/07/02 09:00:38;;;;;;;26.60;19.17;;;;;;;;;;5013972;28;20178;-72
2021/07/02 09:03:22;;;;;;;22.52;17.98;;;;;;;;;;5011918;28;20213;-73
2021/07/02 09:05:47;;;;;;;26.85;18.58;;;;;;;;;;5010809;28;20178;-72
2021/07/02 09:08:13;;;;;;;25.73;18.30;;;;;;;;;;5012052;28;20174;-72
2021/07/02 09:10:39;;;;;;;29.42;20.27;;;;;;;;;;5012596;28;20228;-72
2021/07/02 09:13:04;;;;;;;30.05;19.85;;;;;;;;;;5013233;28;20178;-71
2021/07/02 09:15:30;;;;;;;29.20;19.85;;;;;;;;;;5010816;28;20201;-72
2021/07/02 09:17:58;;;;;;;31.85;21.15;;;;;;;;;;5014303;28;20178;-72
2021/07/02 09:20:29;;;;;;;32.90;20.25;;;;;;;;;;5013151;28;20756;-72
2021/07/02 09:23:04;;;;;;;23.83;17.75;;;;;;;;;;5010546;28;20186;-72
2021/07/02 09:25:32;;;;;;;23.15;18.17;;;;;;;;;;5011576;28;21760;-72
2021/07/02 09:28:04;;;;;;;28.10;17.90;;;;;;;;;;5015535;28;20182;-72
2021/07/02 09:30:30;;;;;;;20.95;17.08;;;;;;;;;;5011944;28;20222;-71
2021/07/02 09:32:58;;;;;;;20.83;16.77;;;;;;;;;;5013402;28;20665;-71
2021/07/02 09:35:28;;;;;;;21.38;16.42;;;;;;;;;;5011345;28;20202;-70
2021/07/02 09:37:56;;;;;;;22.30;15.95;;;;;;;;;;5017530;28;20300;-71
2021/07/02 09:40:22;;;;;;;21.80;15.05;;;;;;;;;;5014567;28;20247;-71
2021/07/02 09:43:08;;;;;;;19.95;15.93;;;;;;;;;;5013377;28;20186;-71
2021/07/02 09:45:50;;;;;;;22.85;16.58;;;;;;;;;;5009794;28;20560;-71
2021/07/02 09:48:17;;;;;;;24.70;17.10;;;;;;;;;;5019489;28;20197;-71
2021/07/02 09:50:43;;;;;;;23.65;16.25;;;;;;;;;;5013766;28;20197;-72
2021/07/02 09:53:10;;;;;;;24.15;17.20;;;;;;;;;;5015793;28;20179;-71
2021/07/02 09:55:45;;;;;;;21.92;16.73;;;;;;;;;;5017691;28;20194;-72
2021/07/02 09:58:14;;;;;;;25.08;15.60;;;;;;;;;;5013171;28;20793;-72
2021/07/02 10:00:41;;;;;;;20.05;15.45;;;;;;;;;;5010259;28;20182;-72
2021/07/02 10:03:07;;;;;;;20.52;16.25;;;;;;;;;;5013289;28;20186;-71
2021/07/02 10:05:46;;;;;;;23.17;15.68;;;;;;;;;;5012450;28;20245;-71
2021/07/02 10:08:11;;;;;;;20.30;16.08;;;;;;;;;;5014442;28;20178;-72
2021/07/02 10:10:36;;;;;;;20.58;14.57;;;;;;;;;;5015735;28;20621;-72
2021/07/02 10:13:01;;;;;;;23.83;15.77;;;;;;;;;;5013491;28;20218;-71
2021/07/02 10:15:27;;;;;;;21.60;15.80;;;;;;;;;;5017320;28;20198;-72
2021/07/02 10:17:57;;;;;;;18.27;14.75;;;;;;;;;;5015701;28;20694;-72
2021/07/02 10:20:23;;;;;;;17.98;14.57;;;;;;;;;;5013575;28;20183;-72
2021/07/02 10:22:49;;;;;;;20.98;15.00;;;;;;;;;;5012021;28;20182;-72
2021/07/02 10:25:18;;;;;;;21.73;15.18;;;;;;;;;;5018226;28;20203;-72
2021/07/02 10:27:44;;;;;;;19.05;14.85;;;;;;;;;;5013569;28;20674;-72
2021/07/02 10:30:10;;;;;;;18.77;14.85;;;;;;;;;;5011393;28;20194;-72
2021/07/02 10:32:36;;;;;;;19.67;14.50;;;;;;;;;;5009893;28;20928;-71
2021/07/02 10:35:01;;;;;;;16.17;13.35;;;;;;;;;;5013946;28;20186;-72
2021/07/02 10:37:29;;;;;;;19.23;15.43;;;;;;;;;;5026960;28;20255;-72
2021/07/02 10:39:54;;;;;;;18.45;14.02;;;;;;;;;;5020274;28;20190;-72
2021/07/02 10:42:19;;;;;;;19.15;13.50;;;;;;;;;;5013327;28;20221;-71
2021/07/02 10:44:54;;;;;;;14.60;12.23;;;;;;;;;;5008941;28;20214;-72
2021/07/02 10:47:22;;;;;;;15.93;12.90;;;;;;;;;;5009011;28;20958;-72
2021/07/02 10:49:48;;;;;;;23.48;14.55;;;;;;;;;;5010374;28;20222;-72
2021/07/02 10:52:23;;;;;;;18.23;13.18;;;;;;;;;;5009723;28;20171;-72
2021/07/02 10:54:49;;;;;;;15.27;12.77;;;;;;;;;;5006599;28;20349;-72
2021/07/02 10:57:17;;;;;;;19.45;14.15;;;;;;;;;;5008775;28;20189;-72
2021/07/02 10:59:49;;;;;;;18.33;12.80;;;;;;;;;;5010086;28;20240;-72
2021/07/02 11:02:17;;;;;;;17.42;12.43;;;;;;;;;;5010475;28;20190;-72
2021/07/02 11:04:43;;;;;;;15.60;12.10;;;;;;;;;;5009232;28;20198;-72
2021/07/02 11:07:12;;;;;;;17.85;12.23;;;;;;;;;;5007122;28;20703;-71
2021/07/02 11:09:58;;;;;;;17.13;13.55;;;;;;;;;;5016028;28;20285;-72
2021/07/02 11:12:27;;;;;;;20.40;14.15;;;;;;;;;;5013973;28;20190;-71
2021/07/02 11:14:55;;;;;;;15.45;12.55;;;;;;;;;;5013564;28;20199;-72
2021/07/02 11:17:25;;;;;;;13.63;11.70;;;;;;;;;;5010625;28;20928;-72
2021/07/02 11:20:09;;;;;;;17.55;11.43;;;;;;;;;;5008566;28;20196;-71
2021/07/02 11:22:39;;;;;;;12.90;9.95;;;;;;;;;;5008804;28;20755;-71
2021/07/02 11:25:04;;;;;;;10.88;9.70;;;;;;;;;;5015438;28;20194;-72
2021/07/02 11:27:35;;;;;;;8.10;6.85;;;;;;;;;;5012634;28;20197;-71
2021/07/02 11:30:02;;;;;;;6.35;5.75;;;;;;;;;;5010890;28;20233;-71
2021/07/02 11:32:31;;;;;;;8.98;6.05;;;;;;;;;;5014191;28;20240;-71
2021/07/02 11:35:15;;;;;;;7.07;5.88;;;;;;;;;;5021874;28;20198;-71
2021/07/02 11:37:59;;;;;;;6.93;6.13;;;;;;;;;;5024506;28;20452;-71
2021/07/02 11:40:27;;;;;;;7.32;6.10;;;;;;;;;;5040147;28;20193;-71
2021/07/02 11:42:53;;;;;;;7.13;5.90;;;;;;;;;;5041804;28;21357;-72
2021/07/02 11:45:18;;;;;;;8.95;5.50;;;;;;;;;;5040369;28;20224;-71
2021/07/02 11:47:44;;;;;;;6.57;5.22;;;;;;;;;;5032748;28;20856;-71
2021/07/02 11:50:09;;;;;;;7.63;5.93;;;;;;;;;;5035868;28;20213;-72
2021/07/02 11:52:34;;;;;;;7.60;6.10;;;;;;;;;;5036661;28;20434;-72
2021/07/02 11:55:00;;;;;;;6.95;6.05;;;;;;;;;;5046833;28;20195;-72
2021/07/02 11:57:25;;;;;;;6.23;5.63;;;;;;;;;;5036427;28;20187;-72
2021/07/02 12:00:00;;;;;;;7.55;6.38;;;;;;;;;;5030040;28;20427;-72
2021/07/02 12:02:25;;;;;;;8.13;6.90;;;;;;;;;;5022895;28;20189;-72
2021/07/02 12:05:04;;;;;;;6.30;5.65;;;;;;;;;;5012203;28;20637;-72
2021/07/02 12:07:30;;;;;;;7.80;6.10;;;;;;;;;;5012590;28;20182;-70
2021/07/02 12:09:55;;;;;;;7.90;6.18;;;;;;;;;;5010510;28;20582;-73
2021/07/02 12:12:20;;;;;;;7.18;6.18;;;;;;;;;;5013142;28;20182;-71
2021/07/02 12:14:46;;;;;;;9.15;6.18;;;;;;;;;;5017486;28;20313;-72
2021/07/02 12:17:11;;;;;;;7.32;5.90;;;;;;;;;;5011323;28;20353;-70
2021/07/02 12:19:38;;;;;;;8.43;6.80;;;;;;;;;;5011810;28;20225;-73
2021/07/02 12:22:05;;;;;;;7.05;6.35;;;;;;;;;;5011146;28;20186;-73
2021/07/02 12:24:32;;;;;;;7.60;5.97;;;;;;;;;;5015074;28;22306;-73
2021/07/02 12:26:58;;;;;;;10.90;6.50;;;;;;;;;;5011266;28;20178;-73
2021/07/02 12:29:24;;;;;;;8.15;6.15;;;;;;;;;;5014026;28;20372;-73
2021/07/02 12:32:09;;;;;;;7.63;6.43;;;;;;;;;;5010796;28;20228;-71
2021/07/02 12:34:48;;;;;;;7.40;6.22;;;;;;;;;;5013036;28;20214;-71
2021/07/02 12:37:15;;;;;;;7.53;6.50;;;;;;;;;;5027148;28;20620;-71
2021/07/02 12:39:44;;;;;;;7.95;6.45;;;;;;;;;;5015919;28;20175;-71
2021/07/02 12:42:09;;;;;;;17.38;7.75;;;;;;;;;;5007701;28;20195;-72
2021/07/02 12:44:35;;;;;;;10.65;7.43;;;;;;;;;;5014985;28;20213;-71
2021/07/02 12:47:03;;;;;;;11.45;8.27;;;;;;;;;;5009049;28;20194;-70
2021/07/02 12:49:29;;;;;;;11.32;7.43;;;;;;;;;;5011209;28;21460;-71
2021/07/02 12:52:01;;;;;;;9.48;7.22;;;;;;;;;;5014705;28;20179;-71
2021/07/02 12:57:17;;;;;;;10.77;7.72;;;;;;;;;;5012254;28;21028;-71
2021/07/02 12:59:46;;;;;;;10.55;8.57;;;;;;;;;;5013717;28;20675;-70
2021/07/02 13:02:12;;;;;;;8.88;7.90;;;;;;;;;;5010717;28;20624;-71
2021/07/02 13:04:43;;;;;;;10.52;8.25;;;;;;;;;;5007497;28;20209;-71
2021/07/02 13:07:09;;;;;;;8.95;8.05;;;;;;;;;;5008421;28;20261;-73
2021/07/02 13:09:34;;;;;;;11.32;7.35;;;;;;;;;;5011566;28;20352;-71
2021/07/02 13:12:15;;;;;;;9.13;7.70;;;;;;;;;;5014552;28;20201;-72
2021/07/02 13:14:43;;;;;;;12.02;8.80;;;;;;;;;;5012781;28;20696;-71
2021/07/02 13:17:09;;;;;;;9.38;7.38;;;;;;;;;;5009845;28;20243;-71
2021/07/02 13:19:34;;;;;;;11.20;8.40;;;;;;;;;;5009665;28;20210;-71
2021/07/02 13:22:16;;;;;;;13.27;8.60;;;;;;;;;;5012085;28;20670;-70
2021/07/02 13:24:42;;;;;;;11.88;8.85;;;;;;;;;;5012369;28;20478;-71
2021/07/02 13:27:10;;;;;;;11.77;8.82;;;;;;;;;;5010738;28;20183;-71
2021/07/02 13:29:35;;;;;;;13.75;8.70;;;;;;;;;;5011856;28;20207;-71
2021/07/02 13:32:01;;;;;;;11.57;8.52;;;;;;;;;;5011208;28;20183;-71
2021/07/02 13:34:44;;;;;;;9.38;8.35;;;;;;;;;;5009604;28;20198;-71
2021/07/02 13:37:10;;;;;;;9.73;7.93;;;;;;;;;;5011957;28;20285;-71
2021/07/02 13:39:40;;;;;;;9.82;6.68;;;;;;;;;;5016958;28;20805;-71
2021/07/02 13:42:08;;;;;;;9.35;8.25;;;;;;;;;;5014170;28;20213;-71
2021/07/02 13:44:34;;;;;;;9.98;7.68;;;;;;;;;;5018122;28;20198;-71
2021/07/02 13:47:15;;;;;;;6.72;6.03;;;;;;;;;;5089862;27;20581;-72
2021/07/02 13:49:41;;;;;;;8.80;7.85;;;;;;;;;;5090849;28;20204;-72
2021/07/02 13:52:07;;;;;;;12.02;8.60;;;;;;;;;;5095847;28;20207;-71
2021/07/02 13:54:32;;;;;;;8.70;7.43;;;;;;;;;;5097004;28;20192;-72
2021/07/02 13:56:58;;;;;;;10.80;8.77;;;;;;;;;;5110755;28;20178;-72
2021/07/02 13:59:23;;;;;;;11.48;8.30;;;;;;;;;;5093869;28;22256;-72
2021/07/02 14:01:49;;;;;;;13.00;10.57;;;;;;;;;;5110441;28;20182;-72
2021/07/02 14:04:14;;;;;;;12.32;11.00;;;;;;;;;;5112234;28;20195;-72
2021/07/02 14:06:40;;;;;;;11.98;9.82;;;;;;;;;;5108454;28;20628;-72
2021/07/02 14:09:08;;;;;;;12.98;10.57;;;;;;;;;;5106539;28;20599;-72
2021/07/02 14:11:34;;;;;;;12.57;11.27;;;;;;;;;;5108665;28;20564;-71
2021/07/02 14:13:59;;;;;;;13.32;10.60;;;;;;;;;;5109259;28;20229;-72
2021/07/02 14:16:25;;;;;;;13.00;10.75;;;;;;;;;;5108198;28;20171;-72
2021/07/02 14:18:50;;;;;;;12.07;10.75;;;;;;;;;;5108919;28;20247;-72
2021/07/02 14:21:15;;;;;;;11.98;9.85;;;;;;;;;;5106303;27;21069;-71
2021/07/02 14:23:41;;;;;;;10.00;8.97;;;;;;;;;;5108414;28;20653;-71
2021/07/02 14:26:06;;;;;;;10.27;9.13;;;;;;;;;;5107793;27;20268;-72